sensor_id;sensor_type;location;lat;lon;timestamp;temperature;humidity
10388;DHT22;5240;51.128;4.566;2023-06-22T10:55:04;19.30;99.90
10388;DHT22;5240;51.128;4.566;2023-06-22T10:57:32;19.30;99.90
10388;DHT22;5240;51.128;4.566;2023-06-22T10:59:59;19.30;99.90
10388;DHT22;5240;51.128;4.566;2023-06-22T11:02:26;19.30;99.90
10388;DHT22;5240;51.128;4.566;2023-06-22T11:04:54;19.30;99.90
10388;DHT22;5240;51.128;4.566;2023-06-22T11:07:21;19.30;99.90
10388;DHT22;5240;51.128;4.566;2023-06-22T11:09:48;19.20;99.90
10388;DHT22;5240;51.128;4.566;2023-06-22T11:12:15;19.30;99.90
10388;DHT22;5240;51.128;4.566;2023-06-22T11:14:43;19.30;99.90
10388;DHT22;5240;51.128;4.566;2023-06-22T11:17:10;19.20;99.90
10388;DHT22;5240;51.128;4.566;2023-06-22T11:19:37;19.20;99.90
10388;DHT22;5240;51.128;4.566;2023-06-22T11:22:05;19.30;99.90
10388;DHT22;5240;51.128;4.566;2023-06-22T11:24:32;19.30;99.90
10388;DHT22;5240;51.128;4.566;2023-06-22T11:26:59;19.40;99.90
10388;DHT22;5240;51.128;4.566;2023-06-22T11:29:26;19.30;99.90
10388;DHT22;5240;51.128;4.566;2023-06-22T11:31:54;19.30;99.90
10388;DHT22;5240;51.128;4.566;2023-06-22T11:34:21;19.30;99.90
10388;DHT22;5240;51.128;4.566;2023-06-22T11:36:49;19.30;99.90
10388;DHT22;5240;51.128;4.566;2023-06-22T11:39:16;19.40;99.90
10388;DHT22;5240;51.128;4.566;2023-06-22T11:41:43;19.20;99.90
10388;DHT22;5240;51.128;4.566;2023-06-22T11:44:10;19.20;99.90
10388;DHT22;5240;51.128;4.566;2023-06-22T11:46:37;19.20;99.90
10388;DHT22;5240;51.128;4.566;2023-06-22T11:49:05;19.20;99.90
10388;DHT22;5240;51.128;4.566;2023-06-22T11:51:32;19.20;99.90
10388;DHT22;5240;51.128;4.566;2023-06-22T11:53:59;19.20;99.90
10388;DHT22;5240;51.128;4.566;2023-06-22T11:56:27;19.20;99.90
10388;DHT22;5240;51.128;4.566;2023-06-22T11:58:54;19.10;99.90
10388;DHT22;5240;51.128;4.566;2023-06-22T12:01:21;19.00;99.90
10388;DHT22;5240;51.128;4.566;2023-06-22T12:03:48;19.00;99.90
10388;DHT22;5240;51.128;4.566;2023-06-22T12:06:17;19.00;99.90
10388;DHT22;5240;51.128;4.566;2023-06-22T12:08:44;18.90;99.90
10388;DHT22;5240;51.128;4.566;2023-06-22T12:11:11;19.00;99.90
10388;DHT22;5240;51.128;4.566;2023-06-22T12:13:38;19.00;99.90
10388;DHT22;5240;51.128;4.566;2023-06-22T12:16:05;19.00;99.90
10388;DHT22;5240;51.128;4.566;2023-06-22T12:18:32;19.10;99.90
10388;DHT22;5240;51.128;4.566;2023-06-22T12:21:00;19.00;99.90
10388;DHT22;5240;51.128;4.566;2023-06-22T12:23:28;19.10;99.90
10388;DHT22;5240;51.128;4.566;2023-06-22T12:25:55;19.20;99.90
10388;DHT22;5240;51.128;4.566;2023-06-22T12:28:22;19.20;99.90
10388;DHT22;5240;51.128;4.566;2023-06-22T12:30:50;19.10;99.90
10388;DHT22;5240;51.128;4.566;2023-06-22T12:33:17;19.20;99.90
10388;DHT22;5240;51.128;4.566;2023-06-22T12:35:44;19.20;99.90
10388;DHT22;5240;51.128;4.566;2023-06-22T12:38:14;19.10;99.90
10388;DHT22;5240;51.128;4.566;2023-06-22T12:40:42;19.10;99.90
10388;DHT22;5240;51.128;4.566;2023-06-22T12:43:09;19.10;99.90
10388;DHT22;5240;51.128;4.566;2023-06-22T12:45:37;19.10;99.90
10388;DHT22;5240;51.128;4.566;2023-06-22T12:48:05;19.10;99.90
10388;DHT22;5240;51.128;4.566;2023-06-22T12:50:32;19.10;99.90
10388;DHT22;5240;51.128;4.566;2023-06-22T12:52:59;19.20;99.90
10388;DHT22;5240;51.128;4.566;2023-06-22T12:55:27;19.30;99.90
10388;DHT22;5240;51.128;4.566;2023-06-22T12:57:56;19.20;99.90
10388;DHT22;5240;51.128;4.566;2023-06-22T13:00:23;19.30;99.90
10388;DHT22;5240;51.128;4.566;2023-06-22T13:02:50;19.30;99.90
10388;DHT22;5240;51.128;4.566;2023-06-22T13:05:17;19.30;99.90
10388;DHT22;5240;51.128;4.566;2023-06-22T13:07:44;19.30;99.90
10388;DHT22;5240;51.128;4.566;2023-06-22T13:10:11;19.30;99.90
10388;DHT22;5240;51.128;4.566;2023-06-22T13:12:38;19.30;99.90
10388;DHT22;5240;51.128;4.566;2023-06-22T13:15:07;19.30;99.90
10388;DHT22;5240;51.128;4.566;2023-06-22T13:17:34;19.30;99.90
10388;DHT22;5240;51.128;4.566;2023-06-22T13:20:02;19.10;99.90
10388;DHT22;5240;51.128;4.566;2023-06-22T13:22:31;19.20;99.90
10388;DHT22;5240;51.128;4.566;2023-06-22T13:25:00;19.20;99.90
10388;DHT22;5240;51.128;4.566;2023-06-22T13:27:27;19.10;99.90
10388;DHT22;5240;51.128;4.566;2023-06-22T13:29:54;19.00;99.90
10388;DHT22;5240;51.128;4.566;2023-06-22T13:32:23;19.00;99.90
10388;DHT22;5240;51.128;4.566;2023-06-22T13:34:51;19.00;99.90
10388;DHT22;5240;51.128;4.566;2023-06-22T13:37:22;19.10;99.90
10388;DHT22;5240;51.128;4.566;2023-06-22T13:39:49;19.10;99.90
10388;DHT22;5240;51.128;4.566;2023-06-22T13:42:16;19.20;99.90
10388;DHT22;5240;51.128;4.566;2023-06-22T13:44:43;19.20;99.90
10388;DHT22;5240;51.128;4.566;2023-06-22T13:47:10;19.10;99.90
10388;DHT22;5240;51.128;4.566;2023-06-22T13:49:38;19.10;99.90
10388;DHT22;5240;51.128;4.566;2023-06-22T13:52:06;19.10;99.90
10388;DHT22;5240;51.128;4.566;2023-06-22T13:54:35;19.00;99.90
10388;DHT22;5240;51.128;4.566;2023-06-22T13:57:03;19.10;99.90
10388;DHT22;5240;51.128;4.566;2023-06-22T13:59:30;19.10;99.90
10388;DHT22;5240;51.128;4.566;2023-06-22T14:01:57;19.20;99.90
10388;DHT22;5240;51.128;4.566;2023-06-22T14:04:24;19.20;99.90
10388;DHT22;5240;51.128;4.566;2023-06-22T14:06:53;19.20;99.90
10388;DHT22;5240;51.128;4.566;2023-06-22T14:09:21;19.20;99.90
10388;DHT22;5240;51.128;4.566;2023-06-22T14:11:48;19.20;99.90
10388;DHT22;5240;51.128;4.566;2023-06-22T14:14:15;19.20;99.90
10388;DHT22;5240;51.128;4.566;2023-06-22T14:16:42;19.10;99.90
10388;DHT22;5240;51.128;4.566;2023-06-22T14:19:09;19.00;99.90
10388;DHT22;5240;51.128;4.566;2023-06-22T14:21:36;19.00;99.90
10388;DHT22;5240;51.128;4.566;2023-06-22T14:24:05;19.00;99.90
10388;DHT22;5240;51.128;4.566;2023-06-22T14:26:32;19.10;99.90
10388;DHT22;5240;51.128;4.566;2023-06-22T14:28:59;19.10;99.90
10388;DHT22;5240;51.128;4.566;2023-06-22T14:31:26;19.20;99.90
10388;DHT22;5240;51.128;4.566;2023-06-22T14:33:53;19.20;99.90
10388;DHT22;5240;51.128;4.566;2023-06-22T14:36:20;19.20;99.90
10388;DHT22;5240;51.128;4.566;2023-06-22T14:38:47;19.30;99.90
10388;DHT22;5240;51.128;4.566;2023-06-22T14:41:15;19.30;99.90
10388;DHT22;5240;51.128;4.566;2023-06-22T14:43:46;19.30;99.90
10388;DHT22;5240;51.128;4.566;2023-06-22T14:46:14;19.40;99.90
10388;DHT22;5240;51.128;4.566;2023-06-22T14:48:41;19.50;99.90
10388;DHT22;5240;51.128;4.566;2023-06-22T14:51:08;19.50;99.90
10388;DHT22;5240;51.128;4.566;2023-06-22T14:53:36;19.50;99.90
10388;DHT22;5240;51.128;4.566;2023-06-22T14:56:03;19.50;99.90
10388;DHT22;5240;51.128;4.566;2023-06-22T14:58:32;19.50;99.90
10388;DHT22;5240;51.128;4.566;2023-06-22T15:01:01;19.50;99.90
10388;DHT22;5240;51.128;4.566;2023-06-22T15:03:29;19.50;99.90
10388;DHT22;5240;51.128;4.566;2023-06-22T15:05:57;19.60;99.90
10388;DHT22;5240;51.128;4.566;2023-06-22T15:08:25;19.50;99.90
10388;DHT22;5240;51.128;4.566;2023-06-22T15:10:52;19.50;99.90
10388;DHT22;5240;51.128;4.566;2023-06-22T15:13:20;19.60;99.90
10388;DHT22;5240;51.128;4.566;2023-06-22T15:15:50;19.60;99.90
10388;DHT22;5240;51.128;4.566;2023-06-22T15:18:17;19.60;99.90
10388;DHT22;5240;51.128;4.566;2023-06-22T15:20:44;19.60;99.90
10388;DHT22;5240;51.128;4.566;2023-06-22T15:23:11;19.60;99.90
10388;DHT22;5240;51.128;4.566;2023-06-22T15:25:39;19.60;99.90
10388;DHT22;5240;51.128;4.566;2023-06-22T15:28:06;19.60;99.90
10388;DHT22;5240;51.128;4.566;2023-06-22T15:30:33;19.70;99.90
10388;DHT22;5240;51.128;4.566;2023-06-22T15:33:01;19.50;99.90
10388;DHT22;5240;51.128;4.566;2023-06-22T15:35:28;19.60;99.90
10388;DHT22;5240;51.128;4.566;2023-06-22T15:37:55;19.70;99.90
10388;DHT22;5240;51.128;4.566;2023-06-22T15:40:22;19.70;99.90
10388;DHT22;5240;51.128;4.566;2023-06-22T15:42:50;19.50;99.90
10388;DHT22;5240;51.128;4.566;2023-06-22T15:45:17;19.50;99.90
10388;DHT22;5240;51.128;4.566;2023-06-22T15:47:44;19.50;99.90
10388;DHT22;5240;51.128;4.566;2023-06-22T15:50:12;19.60;99.90
10388;DHT22;5240;51.128;4.566;2023-06-22T15:52:40;19.60;99.90
10388;DHT22;5240;51.128;4.566;2023-06-22T15:55:08;19.50;99.90
10388;DHT22;5240;51.128;4.566;2023-06-22T15:57:35;19.60;99.90
10388;DHT22;5240;51.128;4.566;2023-06-22T16:00:03;19.60;99.90
10388;DHT22;5240;51.128;4.566;2023-06-22T16:02:31;19.60;99.90
10388;DHT22;5240;51.128;4.566;2023-06-22T16:04:58;19.70;99.90
10388;DHT22;5240;51.128;4.566;2023-06-22T16:07:27;19.70;99.90
10388;DHT22;5240;51.128;4.566;2023-06-22T16:09:54;19.60;99.90
10388;DHT22;5240;51.128;4.566;2023-06-22T16:12:21;19.50;99.90
10388;DHT22;5240;51.128;4.566;2023-06-22T16:14:50;19.60;99.90
10388;DHT22;5240;51.128;4.566;2023-06-22T16:17:17;19.60;99.90
10388;DHT22;5240;51.128;4.566;2023-06-22T16:19:44;19.60;99.90
10388;DHT22;5240;51.128;4.566;2023-06-22T16:22:11;19.60;99.90
10388;DHT22;5240;51.128;4.566;2023-06-22T16:24:40;19.60;99.90
10388;DHT22;5240;51.128;4.566;2023-06-22T16:27:07;19.70;99.90
10388;DHT22;5240;51.128;4.566;2023-06-22T16:29:34;19.70;99.90
10388;DHT22;5240;51.128;4.566;2023-06-22T16:32:02;19.70;99.90
10388;DHT22;5240;51.128;4.566;2023-06-22T16:34:29;19.70;99.90
10388;DHT22;5240;51.128;4.566;2023-06-22T16:36:56;19.70;99.90
10388;DHT22;5240;51.128;4.566;2023-06-22T16:39:23;19.70;99.90
10388;DHT22;5240;51.128;4.566;2023-06-22T16:41:51;19.70;99.90
10388;DHT22;5240;51.128;4.566;2023-06-22T16:44:18;19.70;99.90
10388;DHT22;5240;51.128;4.566;2023-06-22T16:46:48;19.80;99.90
10388;DHT22;5240;51.128;4.566;2023-06-22T16:49:15;19.80;99.90
10388;DHT22;5240;51.128;4.566;2023-06-22T16:51:42;19.80;99.90
10388;DHT22;5240;51.128;4.566;2023-06-22T16:54:10;19.70;99.90
10388;DHT22;5240;51.128;4.566;2023-06-22T16:56:37;19.80;99.90
10388;DHT22;5240;51.128;4.566;2023-06-22T16:59:05;19.80;99.90
10388;DHT22;5240;51.128;4.566;2023-06-22T17:01:33;19.80;99.90
10388;DHT22;5240;51.128;4.566;2023-06-22T17:04:04;19.80;99.90
10388;DHT22;5240;51.128;4.566;2023-06-22T17:06:32;19.90;99.90
10388;DHT22;5240;51.128;4.566;2023-06-22T17:09:00;19.80;99.90
10388;DHT22;5240;51.128;4.566;2023-06-22T17:11:28;19.80;99.90
10388;DHT22;5240;51.128;4.566;2023-06-22T17:13:56;19.80;99.90
10388;DHT22;5240;51.128;4.566;2023-06-22T17:16:28;19.90;99.90
10388;DHT22;5240;51.128;4.566;2023-06-22T17:18:58;19.90;99.90
10388;DHT22;5240;51.128;4.566;2023-06-22T17:21:29;19.90;99.90
10388;DHT22;5240;51.128;4.566;2023-06-22T17:24:00;19.80;99.90
10388;DHT22;5240;51.128;4.566;2023-06-22T17:26:27;19.80;99.90
10388;DHT22;5240;51.128;4.566;2023-06-22T17:28:54;19.80;99.90
10388;DHT22;5240;51.128;4.566;2023-06-22T17:31:35;19.80;99.90
10388;DHT22;5240;51.128;4.566;2023-06-22T17:34:07;19.90;99.90
10388;DHT22;5240;51.128;4.566;2023-06-22T17:36:40;19.90;99.90
10388;DHT22;5240;51.128;4.566;2023-06-22T17:39:10;19.90;99.90
10388;DHT22;5240;51.128;4.566;2023-06-22T17:41:38;20.00;99.90
10388;DHT22;5240;51.128;4.566;2023-06-22T17:44:05;20.10;99.90
10388;DHT22;5240;51.128;4.566;2023-06-22T17:46:37;20.10;99.90
10388;DHT22;5240;51.128;4.566;2023-06-22T17:49:08;20.20;99.90
10388;DHT22;5240;51.128;4.566;2023-06-22T17:51:39;20.20;99.90
10388;DHT22;5240;51.128;4.566;2023-06-22T17:54:06;20.20;99.90
10388;DHT22;5240;51.128;4.566;2023-06-22T17:56:33;20.20;99.90
10388;DHT22;5240;51.128;4.566;2023-06-22T17:59:01;20.10;99.90
10388;DHT22;5240;51.128;4.566;2023-06-22T18:01:33;20.20;99.90
10388;DHT22;5240;51.128;4.566;2023-06-22T18:04:05;20.00;99.90
10388;DHT22;5240;51.128;4.566;2023-06-22T18:06:35;20.00;99.90
10388;DHT22;5240;51.128;4.566;2023-06-22T18:09:03;20.00;99.90
10388;DHT22;5240;51.128;4.566;2023-06-22T18:11:32;20.00;99.90
10388;DHT22;5240;51.128;4.566;2023-06-22T18:14:01;20.00;99.90
10388;DHT22;5240;51.128;4.566;2023-06-22T18:16:31;20.00;99.90
10388;DHT22;5240;51.128;4.566;2023-06-22T18:18:58;20.00;99.90
10388;DHT22;5240;51.128;4.566;2023-06-22T18:21:28;20.10;99.90
10388;DHT22;5240;51.128;4.566;2023-06-22T18:23:55;20.10;99.90
10388;DHT22;5240;51.128;4.566;2023-06-22T18:26:24;20.10;99.90
10388;DHT22;5240;51.128;4.566;2023-06-22T18:28:53;20.10;99.90
10388;DHT22;5240;51.128;4.566;2023-06-22T18:31:21;20.10;99.90
10388;DHT22;5240;51.128;4.566;2023-06-22T18:33:49;20.00;99.90
10388;DHT22;5240;51.128;4.566;2023-06-22T18:36:21;19.90;99.90
10388;DHT22;5240;51.128;4.566;2023-06-22T18:38:50;19.90;99.90
10388;DHT22;5240;51.128;4.566;2023-06-22T18:41:23;19.90;99.90
10388;DHT22;5240;51.128;4.566;2023-06-22T18:43:53;19.90;99.90
10388;DHT22;5240;51.128;4.566;2023-06-22T18:46:32;19.90;99.90
10388;DHT22;5240;51.128;4.566;2023-06-22T18:49:08;19.80;99.90
10388;DHT22;5240;51.128;4.566;2023-06-22T18:51:56;19.80;99.90
10388;DHT22;5240;51.128;4.566;2023-06-22T18:54:32;19.80;99.90
10388;DHT22;5240;51.128;4.566;2023-06-22T18:57:00;19.80;99.90
10388;DHT22;5240;51.128;4.566;2023-06-22T18:59:45;19.80;99.90
10388;DHT22;5240;51.128;4.566;2023-06-22T19:02:14;19.80;99.90
10388;DHT22;5240;51.128;4.566;2023-06-22T19:04:44;19.80;99.90
10388;DHT22;5240;51.128;4.566;2023-06-22T19:07:12;19.80;99.90
10388;DHT22;5240;51.128;4.566;2023-06-22T19:09:40;19.80;99.90
10388;DHT22;5240;51.128;4.566;2023-06-22T19:12:20;19.80;99.90
10388;DHT22;5240;51.128;4.566;2023-06-22T19:15:08;19.80;99.90
10388;DHT22;5240;51.128;4.566;2023-06-22T19:17:37;19.80;99.90
10388;DHT22;5240;51.128;4.566;2023-06-22T19:20:05;19.80;99.90
10388;DHT22;5240;51.128;4.566;2023-06-22T19:22:47;19.80;99.90
10388;DHT22;5240;51.128;4.566;2023-06-22T19:25:19;19.80;99.90
10388;DHT22;5240;51.128;4.566;2023-06-22T19:27:48;19.80;99.90
10388;DHT22;5240;51.128;4.566;2023-06-22T19:30:17;19.70;99.90
10388;DHT22;5240;51.128;4.566;2023-06-22T19:32:44;19.80;99.90
10388;DHT22;5240;51.128;4.566;2023-06-22T19:35:12;19.90;99.90
10388;DHT22;5240;51.128;4.566;2023-06-22T19:37:39;19.90;99.90
10388;DHT22;5240;51.128;4.566;2023-06-22T19:40:10;19.90;99.90
10388;DHT22;5240;51.128;4.566;2023-06-22T19:42:41;19.90;99.90
10388;DHT22;5240;51.128;4.566;2023-06-22T19:45:12;19.70;99.90
10388;DHT22;5240;51.128;4.566;2023-06-22T19:47:40;19.80;99.90
10388;DHT22;5240;51.128;4.566;2023-06-22T19:50:09;19.80;99.90
10388;DHT22;5240;51.128;4.566;2023-06-22T19:52:36;19.80;99.90
10388;DHT22;5240;51.128;4.566;2023-06-22T19:55:07;19.80;99.90
10388;DHT22;5240;51.128;4.566;2023-06-22T19:57:39;19.80;99.90
10388;DHT22;5240;51.128;4.566;2023-06-22T20:00:08;19.80;99.90
10388;DHT22;5240;51.128;4.566;2023-06-22T20:02:39;19.70;99.90
10388;DHT22;5240;51.128;4.566;2023-06-22T20:05:07;19.60;99.90
10388;DHT22;5240;51.128;4.566;2023-06-22T20:07:35;19.60;99.90
10388;DHT22;5240;51.128;4.566;2023-06-22T20:10:12;19.50;99.90
10388;DHT22;5240;51.128;4.566;2023-06-22T20:12:41;19.50;99.90
10388;DHT22;5240;51.128;4.566;2023-06-22T20:15:20;19.50;99.90
10388;DHT22;5240;51.128;4.566;2023-06-22T20:17:54;19.50;99.90
10388;DHT22;5240;51.128;4.566;2023-06-22T20:20:22;19.40;99.90
10388;DHT22;5240;51.128;4.566;2023-06-22T20:22:50;19.30;99.90
10388;DHT22;5240;51.128;4.566;2023-06-22T20:25:21;19.30;99.90
10388;DHT22;5240;51.128;4.566;2023-06-22T20:27:50;19.30;99.90
10388;DHT22;5240;51.128;4.566;2023-06-22T20:30:19;19.30;99.90
10388;DHT22;5240;51.128;4.566;2023-06-22T20:32:51;19.30;99.90
10388;DHT22;5240;51.128;4.566;2023-06-22T20:35:22;19.30;99.90
10388;DHT22;5240;51.128;4.566;2023-06-22T20:37:50;19.30;99.90
10388;DHT22;5240;51.128;4.566;2023-06-22T20:40:20;19.30;99.90
10388;DHT22;5240;51.128;4.566;2023-06-22T20:42:57;19.30;99.90
10388;DHT22;5240;51.128;4.566;2023-06-22T20:45:25;19.30;99.90
10388;DHT22;5240;51.128;4.566;2023-06-22T20:47:54;19.30;99.90
10388;DHT22;5240;51.128;4.566;2023-06-22T20:50:22;19.20;99.90
10388;DHT22;5240;51.128;4.566;2023-06-22T20:52:49;19.20;99.90
10388;DHT22;5240;51.128;4.566;2023-06-22T20:55:18;19.20;99.90
10388;DHT22;5240;51.128;4.566;2023-06-22T20:57:46;19.20;99.90
10388;DHT22;5240;51.128;4.566;2023-06-22T21:00:16;19.20;99.90
10388;DHT22;5240;51.128;4.566;2023-06-22T21:02:43;19.10;99.90
10388;DHT22;5240;51.128;4.566;2023-06-22T21:05:10;19.10;99.90
10388;DHT22;5240;51.128;4.566;2023-06-22T21:07:38;19.10;99.90
10388;DHT22;5240;51.128;4.566;2023-06-22T21:10:06;19.10;99.90
10388;DHT22;5240;51.128;4.566;2023-06-22T21:12:33;19.00;99.90
10388;DHT22;5240;51.128;4.566;2023-06-22T21:15:00;19.00;99.90
10388;DHT22;5240;51.128;4.566;2023-06-22T21:17:31;19.00;99.90
10388;DHT22;5240;51.128;4.566;2023-06-22T21:19:59;18.90;99.90
10388;DHT22;5240;51.128;4.566;2023-06-22T21:22:29;18.90;99.90
10388;DHT22;5240;51.128;4.566;2023-06-22T21:25:05;18.90;99.90
10388;DHT22;5240;51.128;4.566;2023-06-22T21:27:32;18.80;99.90
10388;DHT22;5240;51.128;4.566;2023-06-22T21:29:59;18.80;99.90
10388;DHT22;5240;51.128;4.566;2023-06-22T21:32:27;18.80;99.90
10388;DHT22;5240;51.128;4.566;2023-06-22T21:34:56;18.70;99.90
10388;DHT22;5240;51.128;4.566;2023-06-22T21:37:23;18.70;99.90
10388;DHT22;5240;51.128;4.566;2023-06-22T21:39:51;18.60;99.90
10388;DHT22;5240;51.128;4.566;2023-06-22T21:42:19;18.60;99.90
10388;DHT22;5240;51.128;4.566;2023-06-22T21:44:48;18.60;99.90
10388;DHT22;5240;51.128;4.566;2023-06-22T21:47:15;18.50;99.90
10388;DHT22;5240;51.128;4.566;2023-06-22T21:49:42;18.40;99.90
10388;DHT22;5240;51.128;4.566;2023-06-22T21:52:11;18.40;99.90
10388;DHT22;5240;51.128;4.566;2023-06-22T21:54:38;18.40;99.90
10388;DHT22;5240;51.128;4.566;2023-06-22T21:57:06;18.40;99.90
10388;DHT22;5240;51.128;4.566;2023-06-22T21:59:33;18.30;99.90
10388;DHT22;5240;51.128;4.566;2023-06-22T22:02:00;18.20;99.90
10388;DHT22;5240;51.128;4.566;2023-06-22T22:04:27;18.20;99.90
10388;DHT22;5240;51.128;4.566;2023-06-22T22:06:54;18.20;99.90
10388;DHT22;5240;51.128;4.566;2023-06-22T22:09:22;18.10;99.90
10388;DHT22;5240;51.128;4.566;2023-06-22T22:11:50;18.10;99.90
10388;DHT22;5240;51.128;4.566;2023-06-22T22:14:17;18.00;99.90
10388;DHT22;5240;51.128;4.566;2023-06-22T22:16:44;18.00;99.90
10388;DHT22;5240;51.128;4.566;2023-06-22T22:19:11;18.00;99.90
10388;DHT22;5240;51.128;4.566;2023-06-22T22:21:40;17.90;99.90
10388;DHT22;5240;51.128;4.566;2023-06-22T22:24:08;17.90;99.90
10388;DHT22;5240;51.128;4.566;2023-06-22T22:26:36;17.80;99.90
10388;DHT22;5240;51.128;4.566;2023-06-22T22:29:04;17.80;99.90
10388;DHT22;5240;51.128;4.566;2023-06-22T22:31:31;17.80;99.90
10388;DHT22;5240;51.128;4.566;2023-06-22T22:34:03;17.80;99.90
10388;DHT22;5240;51.128;4.566;2023-06-22T22:36:30;17.80;99.90
10388;DHT22;5240;51.128;4.566;2023-06-22T22:38:57;17.80;99.90
10388;DHT22;5240;51.128;4.566;2023-06-22T22:41:24;17.60;99.90
10388;DHT22;5240;51.128;4.566;2023-06-22T22:43:54;17.60;99.90
10388;DHT22;5240;51.128;4.566;2023-06-22T22:46:21;17.50;99.90
10388;DHT22;5240;51.128;4.566;2023-06-22T22:48:48;17.50;99.90
10388;DHT22;5240;51.128;4.566;2023-06-22T22:51:15;17.50;99.90
10388;DHT22;5240;51.128;4.566;2023-06-22T22:53:43;17.50;99.90
10388;DHT22;5240;51.128;4.566;2023-06-22T22:56:11;17.50;99.90
10388;DHT22;5240;51.128;4.566;2023-06-22T22:58:39;17.50;99.90
10388;DHT22;5240;51.128;4.566;2023-06-22T23:01:07;17.40;99.90
10388;DHT22;5240;51.128;4.566;2023-06-22T23:03:34;17.40;99.90
10388;DHT22;5240;51.128;4.566;2023-06-22T23:06:01;17.30;99.90
10388;DHT22;5240;51.128;4.566;2023-06-22T23:08:28;17.30;99.90
10388;DHT22;5240;51.128;4.566;2023-06-22T23:10:55;17.30;99.90
10388;DHT22;5240;51.128;4.566;2023-06-22T23:13:22;17.30;99.90
10388;DHT22;5240;51.128;4.566;2023-06-22T23:15:49;17.20;99.90
10388;DHT22;5240;51.128;4.566;2023-06-22T23:18:18;17.20;99.90
10388;DHT22;5240;51.128;4.566;2023-06-22T23:20:45;17.20;99.90
10388;DHT22;5240;51.128;4.566;2023-06-22T23:23:12;17.10;99.90
10388;DHT22;5240;51.128;4.566;2023-06-22T23:25:39;17.10;99.90
10388;DHT22;5240;51.128;4.566;2023-06-22T23:28:06;17.00;99.90
10388;DHT22;5240;51.128;4.566;2023-06-22T23:30:34;17.00;99.90
10388;DHT22;5240;51.128;4.566;2023-06-22T23:33:01;17.00;99.90
10388;DHT22;5240;51.128;4.566;2023-06-22T23:35:29;16.90;99.90
10388;DHT22;5240;51.128;4.566;2023-06-22T23:37:56;16.90;99.90
10388;DHT22;5240;51.128;4.566;2023-06-22T23:40:23;16.90;99.90
10388;DHT22;5240;51.128;4.566;2023-06-22T23:42:50;16.80;99.90
10388;DHT22;5240;51.128;4.566;2023-06-22T23:45:18;16.90;99.90
10388;DHT22;5240;51.128;4.566;2023-06-22T23:47:46;16.80;99.90
10388;DHT22;5240;51.128;4.566;2023-06-22T23:50:14;16.80;99.90
10388;DHT22;5240;51.128;4.566;2023-06-22T23:52:43;16.80;99.90
10388;DHT22;5240;51.128;4.566;2023-06-22T23:55:14;16.80;99.90
10388;DHT22;5240;51.128;4.566;2023-06-22T23:57:42;16.70;99.90
